Time;durP1;ratioP1;P1;durP2;ratioP2;P2;SDS_P1;SDS_P2;PMS_P1;PMS_P2;Temp;Humidity;BMP_temperature;BMP_pressure;BME280_temperature;BME280_humidity;BME280_pressure;Samples;Min_cycle;Max_cycle;Signal;HPM_P1;HPM_P2
2023/03/12 00:01:26;;;;;;;;;;;;;;;-0.25;75.83;99864.02;107334;1256;60018;-87
2023/03/12 00:04:10;;;;;;;;;;;;;;;-0.27;75.84;99864.73;107369;1257;124536;-87
2023/03/12 00:06:37;;;;;;;;;;;;;;;-0.29;75.65;99872.91;107129;1256;73464;-89
2023/03/12 00:09:16;;;;;;;;;;;;;;;-0.30;75.51;99869.08;107178;1257;124427;-89
2023/03/12 00:11:53;;;;;;;;;;;;;;;-0.29;75.54;99865.32;107313;1256;71056;-87
2023/03/12 00:14:28;;;;;;;;;;;;;;;-0.30;75.67;99863.52;107192;1256;125110;-88
2023/03/12 00:17:03;;;;;;;;;;;;;;;-0.28;75.82;99860.73;107120;1256;62208;-88
2023/03/12 00:19:36;;;;;;;;;;;;;;;-0.25;75.79;99857.29;107034;1256;73336;-88
2023/03/12 00:22:03;;;;;;;;;;;;;;;-0.22;75.73;99861.04;107086;1257;124139;-88
2023/03/12 00:24:37;;;;;;;;;;;;;;;-0.23;75.67;99856.52;107221;1257;72382;-88
2023/03/12 00:27:05;;;;;;;;;;;;;;;-0.21;75.63;99858.04;107456;1256;123822;-88
2023/03/12 00:29:38;;;;;;;;;;;;;;;-0.20;75.71;99857.02;107521;1256;61343;-87
2023/03/12 00:32:28;;;;;;;;;;;;;;;-0.23;75.55;99860.33;107457;1255;124132;-87
2023/03/12 00:34:56;;;;;;;;;;;;;;;-0.28;75.55;99860.92;107405;1257;65737;-89
2023/03/12 00:37:25;;;;;;;;;;;;;;;-0.32;75.60;99860.83;107473;1256;72682;-87
2023/03/12 00:39:52;;;;;;;;;;;;;;;-0.36;75.64;99864.92;107658;1254;123768;-87
2023/03/12 00:42:19;;;;;;;;;;;;;;;-0.38;75.65;99865.87;107557;1257;61395;-87
2023/03/12 00:44:47;;;;;;;;;;;;;;;-0.38;75.70;99862.60;107186;1256;124707;-88
2023/03/12 00:50:34;;;;;;;;;;;;;;;-0.27;76.10;99862.70;107180;1255;123862;-88
2023/03/12 00:53:03;;;;;;;;;;;;;;;-0.17;76.27;99863.57;107136;1256;61392;-88
2023/03/12 00:55:30;;;;;;;;;;;;;;;-0.07;76.44;99861.14;107046;1254;59824;-88
2023/03/12 00:58:16;;;;;;;;;;;;;;;0.03;76.59;99857.69;107075;1254;122761;-87
2023/03/12 01:00:43;;;;;;;;;;;;;;;0.13;76.30;99860.64;107018;1256;64513;-87
2023/03/12 01:03:28;;;;;;;;;;;;;;;0.23;76.68;99868.05;106880;1256;123470;-88
2023/03/12 01:06:03;;;;;;;;;;;;;;;0.32;76.74;99874.94;107085;1256;61310;-87
2023/03/12 01:08:38;;;;;;;;;;;;;;;0.39;76.89;99880.27;107011;1257;123823;-87
2023/03/12 01:11:24;;;;;;;;;;;;;;;0.45;76.88;99884.58;107117;1256;72257;-87
2023/03/12 01:13:59;;;;;;;;;;;;;;;0.54;77.27;99891.58;107108;1256;124610;-86
2023/03/12 01:16:29;;;;;;;;;;;;;;;0.60;77.35;99890.50;107138;1257;72723;-81
2023/03/12 01:19:01;;;;;;;;;;;;;;;0.66;77.65;99884.92;107955;1256;59401;-81
2023/03/12 01:21:30;;;;;;;;;;;;;;;0.69;77.95;99879.56;107426;1256;124373;-87
2023/03/12 01:24:34;;;;;;;;;;;;;;;0.67;77.66;99876.87;107519;1256;74766;-87
2023/03/12 01:27:00;;;;;;;;;;;;;;;0.62;77.67;99871.77;107434;1256;124251;-87
2023/03/12 01:29:46;;;;;;;;;;;;;;;0.55;77.43;99870.02;107577;1256;71144;-87
2023/03/12 01:32:16;;;;;;;;;;;;;;;0.46;77.21;99870.10;107149;1256;123406;-86
2023/03/12 01:34:54;;;;;;;;;;;;;;;0.37;77.07;99871.05;107462;1256;60457;-86
2023/03/12 01:37:30;;;;;;;;;;;;;;;0.31;77.36;99870.90;107249;1257;74736;-86
2023/03/12 01:40:06;;;;;;;;;;;;;;;0.23;77.18;99874.27;107098;1256;124572;-87
2023/03/12 01:42:39;;;;;;;;;;;;;;;0.15;77.27;99876.46;107307;1256;70454;-87
2023/03/12 01:45:33;;;;;;;;;;;;;;;0.14;77.29;99863.80;106968;1254;127162;-87
2023/03/12 01:48:06;;;;;;;;;;;;;;;0.16;77.34;99856.52;107273;1256;59972;-87
2023/03/12 01:50:33;;;;;;;;;;;;;;;0.19;77.38;99858.03;107152;1257;124558;-87
2023/03/12 01:53:06;;;;;;;;;;;;;;;0.21;77.23;99861.05;107389;1256;65933;-88
2023/03/12 01:55:39;;;;;;;;;;;;;;;0.20;77.14;99864.29;107180;1256;72734;-87
2023/03/12 01:58:17;;;;;;;;;;;;;;;0.24;77.25;99867.58;107027;1255;124094;-87
2023/03/12 02:00:50;;;;;;;;;;;;;;;0.34;77.50;99868.09;107341;1259;61360;-88
2023/03/12 02:03:23;;;;;;;;;;;;;;;0.44;77.38;99871.90;107175;1257;124350;-87
2023/03/12 02:05:59;;;;;;;;;;;;;;;0.54;77.36;99874.84;107085;1256;65361;-87
2023/03/12 02:08:38;;;;;;;;;;;;;;;0.65;77.29;99875.89;106993;1257;124869;-87
2023/03/12 02:11:12;;;;;;;;;;;;;;;0.76;77.63;99881.28;107018;1257;60514;-87
2023/03/12 02:13:51;;;;;;;;;;;;;;;0.84;77.87;99888.23;107082;1256;61204;-87
2023/03/12 02:16:18;;;;;;;;;;;;;;;0.89;77.76;99897.13;107223;1255;74795;-87
2023/03/12 02:25:21;;;;;;;;;;;;;;;0.75;78.07;99898.51;107240;1256;60304;-88
2023/03/12 02:27:58;;;;;;;;;;;;;;;0.60;77.57;99899.95;107325;1255;123839;-88
2023/03/12 02:30:26;;;;;;;;;;;;;;;0.39;77.33;99903.60;107801;1254;74731;-88
2023/03/12 02:33:00;;;;;;;;;;;;;;;0.23;77.24;99903.80;107544;1254;124283;-88
2023/03/12 02:35:34;;;;;;;;;;;;;;;0.08;77.12;99901.79;107628;1254;70457;-88
2023/03/12 02:38:28;;;;;;;;;;;;;;;-0.04;76.99;99904.47;107502;1254;124369;-88
2023/03/12 02:40:55;;;;;;;;;;;;;;;-0.16;76.94;99897.59;107581;1254;61247;-88
2023/03/12 02:43:29;;;;;;;;;;;;;;;-0.24;76.86;99901.84;107356;1256;73355;-87
2023/03/12 02:46:05;;;;;;;;;;;;;;;-0.31;76.80;99905.58;107447;1254;124560;-87
2023/03/12 02:48:38;;;;;;;;;;;;;;;-0.37;76.61;99902.31;107690;1254;72796;-88
2023/03/12 02:51:08;;;;;;;;;;;;;;;-0.43;76.65;99905.59;107479;1256;124577;-88
2023/03/12 02:53:35;;;;;;;;;;;;;;;-0.50;76.57;99904.87;107582;1254;60306;-88
2023/03/12 02:56:08;;;;;;;;;;;;;;;-0.51;76.69;99903.74;107387;1254;124228;-88
2023/03/12 02:58:41;;;;;;;;;;;;;;;-0.55;76.69;99909.77;107307;1254;67204;-88
2023/03/12 03:01:19;;;;;;;;;;;;;;;-0.59;76.47;99915.73;107313;1254;72690;-88
2023/03/12 03:03:46;;;;;;;;;;;;;;;-0.65;76.60;99917.32;107080;1254;123774;-89
2023/03/12 03:06:25;;;;;;;;;;;;;;;-0.69;76.63;99921.90;107224;1254;61393;-89
2023/03/12 03:08:55;;;;;;;;;;;;;;;-0.73;76.76;99923.39;106999;1254;124227;-87
2023/03/12 03:11:29;;;;;;;;;;;;;;;-0.77;76.68;99927.14;107331;1253;65706;-88
2023/03/12 03:17:24;;;;;;;;;;;;;;;-0.86;76.59;99934.75;107453;1253;62175;-88
2023/03/12 03:19:58;;;;;;;;;;;;;;;-0.86;76.65;99940.89;106990;1254;124945;-85
2023/03/12 03:22:28;;;;;;;;;;;;;;;-0.77;77.20;99954.31;107143;1255;74617;-88
2023/03/12 03:25:09;;;;;;;;;;;;;;;-0.67;78.93;99952.36;107608;1253;65909;-88
2023/03/12 03:27:36;;;;;;;;;;;;;;;-0.69;79.69;99957.19;107086;1254;124618;-87
2023/03/12 03:30:07;;;;;;;;;;;;;;;-0.76;79.81;99956.17;107190;1254;60579;-87
2023/03/12 03:32:38;;;;;;;;;;;;;;;-0.82;79.80;99961.13;106970;1254;125023;-87
2023/03/12 03:37:58;;;;;;;;;;;;;;;-0.98;79.38;99964.70;107183;1254;125034;-87
2023/03/12 03:40:26;;;;;;;;;;;;;;;-1.06;78.78;99964.41;106982;1254;71683;-86
2023/03/12 03:42:54;;;;;;;;;;;;;;;-1.13;78.66;99975.71;107093;1257;61249;-81
2023/03/12 03:45:25;;;;;;;;;;;;;;;-1.19;78.28;99978.09;106995;1254;124749;-82
2023/03/12 03:47:52;;;;;;;;;;;;;;;-1.26;78.34;99982.31;107669;1254;74536;-81
2023/03/12 03:50:19;;;;;;;;;;;;;;;-1.31;78.14;99981.84;107318;1254;124861;-86
2023/03/12 03:52:46;;;;;;;;;;;;;;;-1.35;78.02;99986.23;107226;1254;72441;-81
2023/03/12 03:55:15;;;;;;;;;;;;;;;-1.37;78.05;99982.55;107671;1254;60960;-80
2023/03/12 03:57:42;;;;;;;;;;;;;;;-1.39;77.79;99979.48;107662;1254;125011;-81
2023/03/12 04:00:11;;;;;;;;;;;;;;;-1.44;77.70;99978.00;107493;1257;73148;-81
2023/03/12 04:02:38;;;;;;;;;;;;;;;-1.47;77.54;99979.16;107738;1254;124398;-81
2023/03/12 04:05:06;;;;;;;;;;;;;;;-1.50;77.55;99983.47;107836;1254;71393;-81
2023/03/12 04:07:33;;;;;;;;;;;;;;;-1.51;77.45;99985.30;107576;1254;61200;-80
2023/03/12 04:10:00;;;;;;;;;;;;;;;-1.52;77.32;99983.53;107369;1254;60880;-80
2023/03/12 04:12:28;;;;;;;;;;;;;;;-1.52;77.22;99985.94;107652;1254;74465;-80
2023/03/12 04:14:55;;;;;;;;;;;;;;;-1.53;77.30;99991.71;107747;1254;124167;-80
2023/03/12 04:17:22;;;;;;;;;;;;;;;-1.54;77.11;99994.40;107666;1254;72733;-81
2023/03/12 04:19:55;;;;;;;;;;;;;;;-1.55;77.18;99997.80;107924;1254;59391;-80
2023/03/12 04:22:24;;;;;;;;;;;;;;;-1.54;76.97;100007.80;107474;1254;62198;-80
2023/03/12 04:24:52;;;;;;;;;;;;;;;-1.52;77.05;100017.25;107825;1254;75002;-80
2023/03/12 04:27:20;;;;;;;;;;;;;;;-1.47;77.22;100027.20;107992;1254;124353;-80
2023/03/12 04:29:47;;;;;;;;;;;;;;;-1.42;77.15;100021.11;108114;1254;73585;-80
2023/03/12 04:32:15;;;;;;;;;;;;;;;-1.40;77.03;100021.11;107765;1254;124942;-80
2023/03/12 04:34:42;;;;;;;;;;;;;;;-1.32;77.09;100035.51;108022;1254;60969;-80
2023/03/12 04:37:15;;;;;;;;;;;;;;;-1.17;77.32;100041.26;107758;1254;75209;-80
2023/03/12 04:39:42;;;;;;;;;;;;;;;-0.98;77.61;100026.13;107454;1254;124972;-80
2023/03/12 04:42:09;;;;;;;;;;;;;;;-0.91;77.58;100031.77;107703;1254;72689;-80
2023/03/12 04:44:36;;;;;;;;;;;;;;;-0.90;77.33;100032.84;107918;1254;125252;-81
2023/03/12 04:47:03;;;;;;;;;;;;;;;-0.84;77.50;100036.13;107750;1254;60962;-81
2023/03/12 04:49:32;;;;;;;;;;;;;;;-0.76;77.49;100021.24;107956;1254;73510;-81
2023/03/12 04:51:59;;;;;;;;;;;;;;;-0.78;77.86;100015.98;107605;1254;125306;-81
2023/03/12 04:54:26;;;;;;;;;;;;;;;-0.91;77.63;100011.23;107933;1254;73244;-80
2023/03/12 04:56:54;;;;;;;;;;;;;;;-1.04;77.12;100022.90;107582;1259;125185;-81
2023/03/12 04:59:21;;;;;;;;;;;;;;;-1.14;77.04;100022.30;108040;1254;61351;-81
2023/03/12 05:01:48;;;;;;;;;;;;;;;-1.22;77.12;100018.89;107944;1254;75163;-81
2023/03/12 05:04:14;;;;;;;;;;;;;;;-1.24;77.18;100024.64;107969;1254;124607;-81
2023/03/12 05:06:42;;;;;;;;;;;;;;;-1.21;77.22;100023.77;107995;1254;73265;-81
2023/03/12 05:09:10;;;;;;;;;;;;;;;-1.22;76.97;100025.95;107725;1258;125209;-81
2023/03/12 05:11:37;;;;;;;;;;;;;;;-1.17;76.87;100021.77;108045;1254;59631;-80
2023/03/12 05:14:04;;;;;;;;;;;;;;;-1.09;77.48;100021.40;108162;1254;125150;-81
2023/03/12 05:16:31;;;;;;;;;;;;;;;-1.06;77.16;100026.39;108065;1253;67016;-81
2023/03/12 05:18:58;;;;;;;;;;;;;;;-1.01;77.15;100035.48;107621;1254;72827;-80
2023/03/12 05:21:25;;;;;;;;;;;;;;;-0.95;76.76;100027.04;107703;1254;124379;-80
2023/03/12 05:23:52;;;;;;;;;;;;;;;-0.96;76.74;100033.52;107613;1254;60098;-81
2023/03/12 05:26:20;;;;;;;;;;;;;;;-1.01;76.47;100044.24;107644;1254;124627;-81
2023/03/12 05:28:47;;;;;;;;;;;;;;;-0.99;76.60;100051.45;107663;1260;67079;-81
2023/03/12 05:31:14;;;;;;;;;;;;;;;-0.91;76.84;100047.95;107583;1254;71419;-81
2023/03/12 05:33:42;;;;;;;;;;;;;;;-0.95;76.59;100043.90;107535;1254;124677;-82
2023/03/12 05:36:09;;;;;;;;;;;;;;;-1.04;76.55;100051.13;107594;1254;59262;-81
2023/03/12 05:38:36;;;;;;;;;;;;;;;-1.09;76.17;100052.20;107387;1256;125652;-80
2023/03/12 05:41:05;;;;;;;;;;;;;;;-1.12;76.01;100059.95;107769;1256;65629;-81
2023/03/12 05:43:33;;;;;;;;;;;;;;;-1.11;77.80;100067.42;107714;1254;72709;-81
2023/03/12 05:46:00;;;;;;;;;;;;;;;-1.04;80.49;100070.90;107602;1259;125279;-82
2023/03/12 05:48:27;;;;;;;;;;;;;;;-0.88;80.72;100066.58;107827;1254;59576;-81
2023/03/12 05:50:55;;;;;;;;;;;;;;;-0.73;80.64;100076.89;107918;1254;124808;-81
2023/03/12 05:53:22;;;;;;;;;;;;;;;-0.66;80.42;100082.81;107837;1254;67090;-81
2023/03/12 05:55:49;;;;;;;;;;;;;;;-0.36;80.46;100074.73;107498;1254;72718;-81
2023/03/12 05:58:22;;;;;;;;;;;;;;;-0.15;79.97;100069.90;107494;1256;125543;-82
2023/03/12 06:00:50;;;;;;;;;;;;;;;-0.21;79.89;100083.02;107609;1254;61158;-81
2023/03/12 06:03:17;;;;;;;;;;;;;;;-0.34;79.61;100082.45;107795;1254;124679;-82
2023/03/12 06:05:46;;;;;;;;;;;;;;;-0.41;79.14;100087.37;108188;1254;65631;-82
2023/03/12 06:08:13;;;;;;;;;;;;;;;-0.37;79.48;100100.73;107842;1254;125841;-81
2023/03/12 06:10:41;;;;;;;;;;;;;;;-0.17;81.66;100107.70;108123;1254;59920;-81
2023/03/12 06:13:09;;;;;;;;;;;;;;;0.08;82.44;100117.05;107870;1254;60004;-81
2023/03/12 06:15:36;;;;;;;;;;;;;;;0.32;82.93;100128.11;107521;1254;124358;-88
2023/03/12 06:18:12;;;;;;;;;;;;;;;0.32;82.32;100139.98;107683;1254;66454;-87
2023/03/12 06:20:49;;;;;;;;;;;;;;;0.26;81.96;100134.98;107462;1254;124733;-87
2023/03/12 06:23:16;;;;;;;;;;;;;;;0.26;81.68;100137.41;107661;1254;59642;-82
2023/03/12 06:25:46;;;;;;;;;;;;;;;0.32;81.20;100134.80;107704;1254;61333;-80
2023/03/12 06:28:13;;;;;;;;;;;;;;;0.38;81.20;100137.75;107578;1254;125347;-80
2023/03/12 06:30:40;;;;;;;;;;;;;;;0.43;80.64;100133.84;107376;1256;67070;-80
2023/03/12 06:33:07;;;;;;;;;;;;;;;0.38;79.99;100137.75;107379;1256;124720;-79
2023/03/12 06:35:35;;;;;;;;;;;;;;;0.32;79.71;100138.63;107527;1260;61237;-79
2023/03/12 06:38:02;;;;;;;;;;;;;;;0.32;79.35;100143.27;107442;1256;124864;-79
2023/03/12 06:40:29;;;;;;;;;;;;;;;0.37;79.33;100147.31;108036;1256;73411;-80
2023/03/12 06:42:57;;;;;;;;;;;;;;;0.51;79.33;100147.97;108090;1256;67108;-80
2023/03/12 06:45:24;;;;;;;;;;;;;;;0.77;79.43;100145.91;107828;1256;124887;-80
2023/03/12 06:47:52;;;;;;;;;;;;;;;1.11;79.49;100147.38;107883;1259;59712;-82
2023/03/12 06:50:18;;;;;;;;;;;;;;;1.47;79.29;100150.31;107812;1256;124627;-80
2023/03/12 06:52:45;;;;;;;;;;;;;;;1.71;78.70;100152.58;108756;1257;73531;-80
2023/03/12 06:55:12;;;;;;;;;;;;;;;1.90;78.04;100151.23;108950;1255;65808;-80
2023/03/12 06:57:39;;;;;;;;;;;;;;;2.13;77.55;100159.65;107499;1256;123915;-81
2023/03/12 07:00:06;;;;;;;;;;;;;;;2.35;77.16;100173.90;107665;1254;59554;-80
2023/03/12 07:02:33;;;;;;;;;;;;;;;2.50;76.22;100192.95;107716;1256;124264;-80
2023/03/12 07:05:01;;;;;;;;;;;;;;;2.31;76.58;100187.35;107768;1256;74487;-80
2023/03/12 07:07:28;;;;;;;;;;;;;;;2.04;76.37;100198.30;107721;1256;67370;-80
2023/03/12 07:09:55;;;;;;;;;;;;;;;1.64;79.33;100206.30;107113;1256;123931;-88
2023/03/12 07:12:22;;;;;;;;;;;;;;;1.13;83.48;100210.90;107320;1255;59729;-88
2023/03/12 07:14:56;;;;;;;;;;;;;;;0.68;87.61;100218.80;107229;1256;124730;-88
2023/03/12 07:17:24;;;;;;;;;;;;;;;0.43;89.89;100218.79;107606;1255;75725;-80
2023/03/12 07:19:54;;;;;;;;;;;;;;;0.31;88.82;100210.69;107610;1254;65946;-86
2023/03/12 07:22:21;;;;;;;;;;;;;;;0.34;87.06;100207.24;107363;1255;124254;-80
2023/03/12 07:24:52;;;;;;;;;;;;;;;0.37;86.55;100208.61;107580;1256;61164;-86
2023/03/12 07:27:19;;;;;;;;;;;;;;;0.30;85.92;100215.14;107678;1256;125107;-80
2023/03/12 07:29:46;;;;;;;;;;;;;;;0.15;84.97;100221.85;107828;1256;72401;-88
2023/03/12 07:32:13;;;;;;;;;;;;;;;0.04;84.52;100220.69;107831;1255;124822;-87
2023/03/12 07:35:00;;;;;;;;;;;;;;;0.08;84.42;100227.45;107869;1254;71414;-89
2023/03/12 07:37:27;;;;;;;;;;;;;;;0.19;84.65;100222.23;107502;1254;60082;-89
2023/03/12 07:40:04;;;;;;;;;;;;;;;0.32;84.63;100216.65;107066;1255;125208;-90
2023/03/12 07:42:31;;;;;;;;;;;;;;;0.48;84.65;100219.23;107436;1256;74560;-81
2023/03/12 07:45:10;;;;;;;;;;;;;;;0.63;84.62;100211.63;107462;1254;124660;-89
2023/03/12 07:47:38;;;;;;;;;;;;;;;0.81;84.71;100215.58;107820;1258;71364;-89
2023/03/12 07:50:05;;;;;;;;;;;;;;;1.06;84.90;100217.80;107133;1254;124746;-89
2023/03/12 07:52:35;;;;;;;;;;;;;;;1.59;85.23;100225.45;107451;1254;59745;-90
2023/03/12 07:55:02;;;;;;;;;;;;;;;2.15;84.64;100223.96;107408;1259;73384;-88
2023/03/12 07:57:31;;;;;;;;;;;;;;;2.56;83.85;100221.48;107714;1254;124832;-88
2023/03/12 08:00:00;;;;;;;;;;;;;;;2.79;83.10;100222.41;107827;1254;71464;-88
2023/03/12 08:02:31;;;;;;;;;;;;;;;3.04;82.10;100212.13;107792;1257;124598;-88
2023/03/12 08:04:58;;;;;;;;;;;;;;;3.31;81.49;100217.03;108109;1254;59444;-88
2023/03/12 08:07:31;;;;;;;;;;;;;;;3.53;80.57;100214.56;108077;1257;72416;-88
2023/03/12 08:09:58;;;;;;;;;;;;;;;3.56;79.09;100219.36;107938;1254;124253;-88
2023/03/12 08:12:27;;;;;;;;;;;;;;;3.37;77.30;100224.56;107638;1259;71437;-88
2023/03/12 08:14:54;;;;;;;;;;;;;;;3.21;76.78;100227.83;107479;1254;124115;-90
2023/03/12 08:17:43;;;;;;;;;;;;;;;3.18;76.58;100229.92;107773;1254;59797;-89
2023/03/12 08:20:34;;;;;;;;;;;;;;;3.07;75.58;100237.41;107901;1254;123967;-92
2023/03/12 08:23:02;;;;;;;;;;;;;;;3.02;75.46;100244.97;108050;1256;66068;-91
2023/03/12 08:25:35;;;;;;;;;;;;;;;3.22;75.93;100239.14;107867;1254;71524;-90
2023/03/12 08:28:15;;;;;;;;;;;;;;;3.68;76.16;100234.79;107432;1254;124428;-90
2023/03/12 08:30:48;;;;;;;;;;;;;;;4.15;75.63;100229.21;107677;1254;60317;-89
2023/03/12 08:36:25;;;;;;;;;;;;;;;4.70;73.60;100245.90;107564;1254;67074;-88
2023/03/12 08:39:07;;;;;;;;;;;;;;;4.57;71.90;100261.01;107325;1254;124372;-89
2023/03/12 08:41:39;;;;;;;;;;;;;;;4.28;70.97;100268.98;107393;1254;62264;-88
2023/03/12 08:44:26;;;;;;;;;;;;;;;4.06;70.52;100289.06;107233;1256;124248;-90
2023/03/12 08:46:53;;;;;;;;;;;;;;;3.78;70.66;100298.77;107265;1254;73368;-86
2023/03/12 08:49:29;;;;;;;;;;;;;;;3.38;70.30;100313.76;107538;1254;67609;-84
2023/03/12 08:52:05;;;;;;;;;;;;;;;2.74;77.12;100328.05;107193;1254;123850;-85
2023/03/12 08:54:46;;;;;;;;;;;;;;;2.32;79.88;100333.39;107510;1254;60257;-86
2023/03/12 08:57:18;;;;;;;;;;;;;;;2.32;81.51;100328.20;107303;1255;123881;-84
2023/03/12 09:00:00;;;;;;;;;;;;;;;2.36;80.40;100332.02;107438;1258;73376;-86
2023/03/12 09:02:39;;;;;;;;;;;;;;;2.59;79.71;100342.91;107502;1254;124634;-84
2023/03/12 09:05:07;;;;;;;;;;;;;;;2.90;78.80;100363.65;107582;1254;72622;-85
2023/03/12 09:07:37;;;;;;;;;;;;;;;2.99;77.71;100371.88;107759;1253;59783;-88
2023/03/12 09:10:22;;;;;;;;;;;;;;;2.87;76.72;100366.29;107432;1259;124320;-88
2023/03/12 09:12:52;;;;;;;;;;;;;;;2.88;76.17;100360.27;107323;1254;74662;-86
2023/03/12 09:15:29;;;;;;;;;;;;;;;3.05;75.11;100358.83;107242;1254;124109;-87
2023/03/12 09:18:01;;;;;;;;;;;;;;;3.03;73.67;100361.33;107774;1258;71368;-85
2023/03/12 09:20:42;;;;;;;;;;;;;;;2.84;73.02;100365.09;107600;1254;124733;-84
2023/03/12 09:23:16;;;;;;;;;;;;;;;2.60;72.22;100359.04;107309;1260;61247;-85
2023/03/12 09:25:52;;;;;;;;;;;;;;;2.46;72.32;100361.48;107469;1255;74650;-86
2023/03/12 09:31:41;;;;;;;;;;;;;;;2.45;71.71;100403.32;107665;1254;72950;-87
2023/03/12 09:34:08;;;;;;;;;;;;;;;2.48;72.86;100398.60;107795;1258;123760;-82
2023/03/12 09:36:37;;;;;;;;;;;;;;;2.48;71.92;100396.02;107961;1256;59705;-85
2023/03/12 09:39:04;;;;;;;;;;;;;;;2.37;71.84;100397.55;106872;1254;1344334;-86
2023/03/12 09:41:33;;;;;;;;;;;;;;;2.16;71.35;100397.48;107488;1256;67927;-85
2023/03/12 09:44:12;;;;;;;;;;;;;;;2.03;70.77;100393.15;107835;1254;124790;-81
2023/03/12 09:46:47;;;;;;;;;;;;;;;2.05;70.53;100398.96;107712;1256;59637;-81
2023/03/12 09:49:16;;;;;;;;;;;;;;;2.43;70.94;100402.54;107772;1257;60360;-81
2023/03/12 09:51:44;;;;;;;;;;;;;;;2.75;70.93;100403.62;107477;1254;123909;-80
2023/03/12 09:54:20;;;;;;;;;;;;;;;2.85;69.79;100412.29;107507;1261;67640;-83
2023/03/12 09:56:48;;;;;;;;;;;;;;;2.90;69.33;100410.47;107234;1257;123902;-80
2023/03/12 09:59:15;;;;;;;;;;;;;;;2.97;68.99;100416.52;107379;1254;61551;-80
2023/03/12 10:01:48;;;;;;;;;;;;;;;2.90;68.53;100428.66;107430;1256;60511;-80
2023/03/12 10:04:38;;;;;;;;;;;;;;;3.03;68.68;100446.64;107529;1254;123643;-80
2023/03/12 10:07:10;;;;;;;;;;;;;;;3.23;70.33;100459.58;107617;1254;67694;-81
2023/03/12 10:09:38;;;;;;;;;;;;;;;3.37;72.93;100443.11;107388;1257;123848;-81
2023/03/12 10:12:34;;;;;;;;;;;;;;;3.30;71.11;100442.59;108893;1254;59288;-82
2023/03/12 10:15:14;;;;;;;;;;;;;;;2.95;68.36;100433.94;106933;1254;123990;-80
2023/03/12 10:17:44;;;;;;;;;;;;;;;2.59;67.25;100438.33;107390;1257;73337;-82
2023/03/12 10:20:14;;;;;;;;;;;;;;;2.34;67.12;100438.22;107397;1257;123894;-81
2023/03/12 10:22:50;;;;;;;;;;;;;;;2.26;67.32;100441.77;107745;1258;73061;-81
2023/03/12 10:25:18;;;;;;;;;;;;;;;2.24;67.55;100444.27;107527;1254;61378;-82
2023/03/12 10:27:45;;;;;;;;;;;;;;;2.27;67.46;100442.40;107534;1254;123892;-90
2023/03/12 10:30:25;;;;;;;;;;;;;;;2.48;67.72;100456.77;107681;1254;74678;-89
2023/03/12 10:33:18;;;;;;;;;;;;;;;3.08;67.07;100484.81;107351;1256;124360;-89
2023/03/12 10:35:45;;;;;;;;;;;;;;;3.44;71.56;100470.88;107634;1256;71226;-87
2023/03/12 10:38:14;;;;;;;;;;;;;;;3.05;71.90;100471.17;107619;1255;124596;-90
2023/03/12 10:40:47;;;;;;;;;;;;;;;2.62;69.94;100470.17;107606;1255;60331;-87
2023/03/12 10:43:16;;;;;;;;;;;;;;;2.42;69.43;100470.53;107590;1256;74428;-84
2023/03/12 10:46:03;;;;;;;;;;;;;;;2.39;69.09;100468.64;107621;1256;123846;-85
2023/03/12 10:48:30;;;;;;;;;;;;;;;2.40;68.30;100469.72;107857;1257;71037;-88
2023/03/12 10:51:01;;;;;;;;;;;;;;;2.45;67.83;100471.20;107725;1256;123768;-82
2023/03/12 10:53:31;;;;;;;;;;;;;;;2.48;66.91;100469.81;108050;1256;61209;-82
2023/03/12 10:56:12;;;;;;;;;;;;;;;2.51;66.31;100481.20;108210;1257;73824;-82
2023/03/12 10:58:40;;;;;;;;;;;;;;;2.52;65.84;100474.85;108212;1256;65882;-82
2023/03/12 11:01:15;;;;;;;;;;;;;;;2.68;64.98;100480.22;107964;1256;71034;-87
2023/03/12 11:03:44;;;;;;;;;;;;;;;2.99;63.98;100468.63;107522;1256;123998;-87
2023/03/12 11:06:22;;;;;;;;;;;;;;;3.43;63.53;100469.75;107734;1255;59922;-87
2023/03/12 11:09:24;;;;;;;;;;;;;;;3.87;62.56;100464.40;107478;1255;124002;-87
2023/03/12 11:11:53;;;;;;;;;;;;;;;4.15;61.87;100467.98;107101;1262;67134;-87
2023/03/12 11:14:23;;;;;;;;;;;;;;;4.23;61.33;100477.02;107040;1263;124376;-86
2023/03/12 11:16:50;;;;;;;;;;;;;;;4.15;59.97;100475.42;107226;1262;59319;-83
2023/03/12 11:19:30;;;;;;;;;;;;;;;3.93;59.34;100476.15;107224;1262;60675;-81
2023/03/12 11:22:02;;;;;;;;;;;;;;;3.70;58.08;100491.02;107070;1262;123960;-83
2023/03/12 11:24:31;;;;;;;;;;;;;;;3.42;57.63;100489.46;107130;1262;66970;-83
2023/03/12 11:27:04;;;;;;;;;;;;;;;3.30;57.94;100495.32;107132;1262;123677;-83
2023/03/12 11:29:42;;;;;;;;;;;;;;;3.30;58.14;100497.92;107380;1261;61391;-87
2023/03/12 11:32:28;;;;;;;;;;;;;;;3.31;58.14;100499.36;107280;1262;124167;-83
2023/03/12 11:35:03;;;;;;;;;;;;;;;3.28;58.02;100504.95;107341;1262;73861;-87
2023/03/12 11:37:36;;;;;;;;;;;;;;;3.25;58.23;100503.56;107161;1262;65835;-88
2023/03/12 11:40:20;;;;;;;;;;;;;;;3.29;58.43;100501.36;107359;1261;123966;-88
2023/03/12 11:43:05;;;;;;;;;;;;;;;3.49;59.11;100502.87;107444;1260;59456;-87
2023/03/12 11:45:32;;;;;;;;;;;;;;;3.83;59.41;100508.85;107335;1263;123873;-86
2023/03/12 11:48:06;;;;;;;;;;;;;;;4.03;58.84;100512.55;107519;1257;73324;-87
2023/03/12 11:50:45;;;;;;;;;;;;;;;4.08;58.43;100518.71;107802;1255;126903;-87
2023/03/12 11:53:39;;;;;;;;;;;;;;;4.08;58.64;100517.52;108020;1257;71710;-87
2023/03/12 11:56:15;;;;;;;;;;;;;;;3.90;58.15;100518.88;108511;1254;123916;-88
2023/03/12 11:58:54;;;;;;;;;;;;;;;3.71;58.53;100517.09;108188;1256;60186;-88
2023/03/12 12:01:21;;;;;;;;;;;;;;;3.60;58.26;100518.81;107870;1254;75706;-89
2023/03/12 12:03:56;;;;;;;;;;;;;;;3.57;58.35;100522.33;107695;1254;124289;-89
2023/03/12 12:06:38;;;;;;;;;;;;;;;3.50;57.52;100516.23;107859;1256;72436;-89
2023/03/12 12:09:09;;;;;;;;;;;;;;;3.36;56.31;100518.14;107807;1259;124404;-88
2023/03/12 12:11:59;;;;;;;;;;;;;;;3.25;56.15;100523.00;107894;1257;61257;-91
2023/03/12 12:14:36;;;;;;;;;;;;;;;3.13;54.97;100521.33;107775;1258;124102;-90
2023/03/12 12:17:06;;;;;;;;;;;;;;;3.01;53.64;100525.41;107585;1259;65748;-82
2023/03/12 12:19:34;;;;;;;;;;;;;;;2.93;53.87;100527.77;107660;1257;72698;-89
2023/03/12 12:22:07;;;;;;;;;;;;;;;2.88;53.66;100529.43;107778;1255;123969;-90
2023/03/12 12:25:00;;;;;;;;;;;;;;;2.89;53.77;100531.89;107667;1255;60333;-89
2023/03/12 12:27:29;;;;;;;;;;;;;;;2.96;53.42;100541.09;107538;1256;123860;-90
2023/03/12 12:30:05;;;;;;;;;;;;;;;2.98;52.63;100543.60;107734;1258;64811;-81
2023/03/12 12:32:33;;;;;;;;;;;;;;;2.96;52.81;100546.10;107404;1256;124611;-81
2023/03/12 12:35:20;;;;;;;;;;;;;;;3.00;52.44;100541.48;107969;1256;60019;-82
2023/03/12 12:37:53;;;;;;;;;;;;;;;3.14;53.33;100543.77;107832;1257;59457;-82
2023/03/12 12:40:30;;;;;;;;;;;;;;;3.26;52.83;100545.09;107772;1258;123859;-82
2023/03/12 12:43:14;;;;;;;;;;;;;;;3.31;52.67;100551.21;108147;1256;65924;-81
2023/03/12 12:45:41;;;;;;;;;;;;;;;3.38;52.93;100545.99;107996;1256;125017;-81
2023/03/12 12:48:16;;;;;;;;;;;;;;;3.40;52.78;100552.52;107883;1256;59188;-81
2023/03/12 12:50:43;;;;;;;;;;;;;;;3.35;52.16;100551.57;107671;1256;124896;-82
2023/03/12 12:53:36;;;;;;;;;;;;;;;3.25;51.95;100554.20;107820;1262;73398;-81
2023/03/12 12:56:29;;;;;;;;;;;;;;;3.21;52.17;100550.52;108139;1259;124544;-83
2023/03/12 12:59:15;;;;;;;;;;;;;;;3.24;51.79;100556.74;108129;1260;72620;-83
2023/03/12 13:01:42;;;;;;;;;;;;;;;3.22;51.02;100557.71;108017;1256;59443;-82
2023/03/12 13:04:10;;;;;;;;;;;;;;;3.20;51.23;100554.29;107614;1259;124363;-82
2023/03/12 13:06:56;;;;;;;;;;;;;;;3.22;51.91;100554.23;107528;1257;74731;-83
2023/03/12 13:09:34;;;;;;;;;;;;;;;3.28;52.26;100560.79;107489;1259;124067;-81
2023/03/12 13:12:13;;;;;;;;;;;;;;;3.35;52.34;100561.45;107802;1256;71715;-83
2023/03/12 13:14:41;;;;;;;;;;;;;;;3.40;52.36;100556.54;107900;1256;124154;-87
2023/03/12 13:17:28;;;;;;;;;;;;;;;3.48;52.54;100561.27;107894;1257;60232;-84
2023/03/12 13:20:19;;;;;;;;;;;;;;;3.57;52.36;100565.34;107367;1256;73370;-84
2023/03/12 13:23:02;;;;;;;;;;;;;;;3.64;52.52;100561.70;107601;1256;65740;-84